Time;durP1;ratioP1;P1;durP2;ratioP2;P2;SDS_P1;SDS_P2;PMS_P1;PMS_P2;Temp;Humidity;BMP_temperature;BMP_pressure;BME280_temperature;BME280_humidity;BME280_pressure;Samples;Min_cycle;Max_cycle;Signal;HPM_P1;HPM_P2
2022/11/01 00:00:00;;;;;;;13.20;6.03;;;;;;;15.21;86.90;100891.34;5003230;28;20030;-65
2022/11/01 00:02:25;;;;;;;13.45;5.60;;;;;;;15.23;87.55;100884.50;5000853;28;20056;-65
2022/11/01 00:04:50;;;;;;;14.00;5.47;;;;;;;15.20;88.21;100884.44;4980862;28;20054;-65
2022/11/01 00:07:16;;;;;;;15.95;5.68;;;;;;;15.23;88.55;100884.50;5004426;28;20030;-65
2022/11/01 00:09:41;;;;;;;13.30;5.57;;;;;;;15.24;88.46;100883.63;5005724;28;20072;-65
2022/11/01 00:12:06;;;;;;;12.18;5.40;;;;;;;15.25;88.68;100870.69;4999959;28;20037;-66
2022/11/01 00:14:32;;;;;;;11.02;5.07;;;;;;;15.28;88.31;100875.00;5005905;28;20041;-66
2022/11/01 00:16:57;;;;;;;15.63;5.80;;;;;;;15.28;89.02;100864.66;5004901;28;20109;-65
2022/11/01 00:19:23;;;;;;;14.30;5.35;;;;;;;15.30;88.67;100862.97;5004122;28;20053;-65
2022/11/01 00:21:48;;;;;;;13.93;5.90;;;;;;;15.30;89.22;100862.97;5005029;28;20480;-65
2022/11/01 00:24:13;;;;;;;13.30;5.32;;;;;;;15.33;89.10;100855.19;5005366;28;20127;-65
2022/11/01 00:26:39;;;;;;;12.50;4.90;;;;;;;15.35;89.06;100861.28;5004240;28;20500;-65
2022/11/01 00:29:04;;;;;;;13.80;4.93;;;;;;;15.36;89.34;100857.84;5005131;28;20084;-64
2022/11/01 00:31:30;;;;;;;16.73;5.20;;;;;;;15.38;89.58;100861.28;5003468;28;20065;-64
2022/11/01 00:33:55;;;;;;;10.32;4.90;;;;;;;15.41;89.32;100850.97;5002244;28;20497;-64
2022/11/01 00:36:21;;;;;;;14.93;4.88;;;;;;;15.45;89.51;100857.91;5001488;28;20037;-64
2022/11/01 00:38:51;;;;;;;11.45;4.75;;;;;;;15.48;89.51;100846.72;5001422;28;20483;-64
2022/11/01 00:41:18;;;;;;;11.45;4.70;;;;;;;15.46;90.17;100838.91;5000599;28;20018;-65
2022/11/01 00:43:43;;;;;;;13.88;4.40;;;;;;;15.51;90.21;100847.56;5000865;28;20051;-65
2022/11/01 00:46:09;;;;;;;9.60;4.13;;;;;;;15.54;89.92;100852.81;5003405;28;20049;-65
2022/11/01 00:48:34;;;;;;;11.35;4.20;;;;;;;15.56;89.91;100853.66;5002305;28;20045;-65
2022/11/01 00:51:00;;;;;;;11.63;4.30;;;;;;;15.60;90.07;100848.53;5001782;28;20080;-65
2022/11/01 00:53:25;;;;;;;13.38;4.05;;;;;;;15.58;90.24;100838.13;5000314;28;20029;-65
2022/11/01 00:55:51;;;;;;;9.95;3.97;;;;;;;15.64;90.29;100848.56;5000211;28;20033;-65
2022/11/01 00:58:16;;;;;;;10.15;4.32;;;;;;;15.67;90.38;100850.34;4982955;28;20030;-64
2022/11/01 01:00:42;;;;;;;14.27;4.55;;;;;;;15.68;89.95;100839.97;5005071;28;20030;-65
2022/11/01 01:03:07;;;;;;;9.20;3.80;;;;;;;15.69;90.03;100839.09;5003426;28;20116;-65
2022/11/01 01:05:34;;;;;;;8.57;3.95;;;;;;;15.69;90.63;100839.09;5001432;28;20137;-65
2022/11/01 01:08:00;;;;;;;10.23;4.38;;;;;;;15.69;90.53;100841.69;5000921;28;20113;-65
2022/11/01 01:10:25;;;;;;;13.15;4.05;;;;;;;15.70;90.38;100834.78;5008992;28;20117;-65
2022/11/01 01:12:51;;;;;;;9.18;4.15;;;;;;;15.70;90.27;100832.19;4988555;28;20088;-65
2022/11/01 01:15:16;;;;;;;9.10;4.10;;;;;;;15.72;90.06;100833.09;5001517;28;20036;-65
2022/11/01 01:17:42;;;;;;;9.90;4.60;;;;;;;15.74;90.34;100826.19;5002557;28;20026;-65
2022/11/01 01:20:08;;;;;;;15.40;4.22;;;;;;;15.74;90.45;100828.78;5001804;28;20031;-65
2022/11/01 01:22:33;;;;;;;10.75;4.32;;;;;;;15.76;90.74;100832.22;5003560;28;20440;-65
2022/11/01 01:24:59;;;;;;;14.20;4.10;;;;;;;15.75;90.89;100831.38;5003375;28;20555;-65
2022/11/01 01:27:24;;;;;;;11.40;4.80;;;;;;;15.75;91.00;100833.09;5001922;28;20038;-64
2022/11/01 01:29:51;;;;;;;9.35;4.30;;;;;;;15.78;91.63;100835.72;5001918;28;20439;-65
2022/11/01 01:32:19;;;;;;;10.30;4.17;;;;;;;15.79;91.21;100834.84;4964178;28;1104792;-66
2022/11/01 01:34:44;;;;;;;9.30;4.00;;;;;;;15.80;91.08;100839.19;5003799;28;20045;-65
2022/11/01 01:37:10;;;;;;;7.90;4.00;;;;;;;15.81;91.23;100835.72;5003505;28;20046;-65
2022/11/01 01:39:36;;;;;;;9.10;4.40;;;;;;;15.82;91.71;100827.09;5005845;28;20037;-65
2022/11/01 01:42:13;;;;;;;8.80;4.15;;;;;;;15.82;91.56;100830.53;4997288;28;20030;-65
2022/11/01 01:44:50;;;;;;;10.07;4.03;;;;;;;15.84;91.52;100840.94;5005511;28;20029;-66
2022/11/01 01:47:27;;;;;;;12.10;4.13;;;;;;;15.84;91.54;100830.56;5002761;28;20037;-65
2022/11/01 01:50:00;;;;;;;13.07;4.20;;;;;;;15.85;92.13;100826.25;5001814;28;20029;-65
2022/11/01 01:52:29;;;;;;;9.57;4.30;;;;;;;15.85;92.17;100832.31;5000583;28;20037;-65
2022/11/01 01:54:55;;;;;;;10.38;4.30;;;;;;;15.87;91.94;100827.97;5002906;28;20112;-65
2022/11/01 01:57:21;;;;;;;9.27;4.60;;;;;;;15.89;91.85;100825.38;5002410;28;20053;-65
2022/11/01 01:59:46;;;;;;;11.02;4.63;;;;;;;15.89;92.33;100821.06;5003052;28;20042;-65
2022/11/01 02:02:12;;;;;;;16.17;4.68;;;;;;;15.93;92.37;100816.78;5001329;28;20030;-65
2022/11/01 02:04:42;;;;;;;12.88;4.60;;;;;;;15.95;92.56;100826.28;4983051;28;20038;-65
2022/11/01 02:07:08;;;;;;;14.25;4.32;;;;;;;15.95;92.51;100825.41;5000635;28;20025;-65
2022/11/01 02:09:35;;;;;;;13.02;4.20;;;;;;;15.94;92.52;100806.41;5002017;28;20034;-65
2022/11/01 02:12:01;;;;;;;9.40;4.07;;;;;;;15.97;92.02;100818.53;5001518;28;20113;-65
2022/11/01 02:14:27;;;;;;;13.38;4.18;;;;;;;16.00;92.64;100815.94;4995604;28;20046;-65
2022/11/01 02:17:15;;;;;;;9.35;4.10;;;;;;;15.99;92.29;100815.09;5008344;28;20087;-64
2022/11/01 02:19:47;;;;;;;11.93;4.82;;;;;;;16.02;92.38;100817.72;4988396;28;20070;-65
2022/11/01 02:23:16;;;;;;;9.05;4.00;;;;;;;16.03;92.07;100822.03;4999279;28;20022;-65
2022/11/01 02:26:26;;;;;;;12.55;4.60;;;;;;;16.05;92.08;100832.41;4922133;29;20039;-65
2022/11/01 02:29:13;;;;;;;9.23;4.15;;;;;;;16.05;92.35;100827.22;4948279;28;20057;-65
2022/11/01 02:32:02;;;;;;;11.88;4.43;;;;;;;16.05;92.31;100822.03;5002850;28;20080;-65
2022/11/01 02:34:43;;;;;;;7.65;4.03;;;;;;;16.06;92.53;100823.75;5002930;28;20042;-65
2022/11/01 02:37:09;;;;;;;10.77;4.07;;;;;;;16.03;92.43;100823.75;5000033;28;20030;-65
2022/11/01 02:39:39;;;;;;;10.38;3.83;;;;;;;15.95;92.45;100813.31;5003274;28;20025;-65
2022/11/01 02:42:14;;;;;;;11.93;4.18;;;;;;;16.02;92.50;100833.28;5005430;28;20556;-66
2022/11/01 02:44:47;;;;;;;9.90;4.20;;;;;;;16.01;92.42;100834.09;5003137;28;20022;-65
2022/11/01 02:47:13;;;;;;;8.15;4.07;;;;;;;16.01;92.42;100841.00;5000509;28;20026;-65
2022/11/01 02:49:45;;;;;;;9.52;4.07;;;;;;;16.02;92.23;100843.66;5000007;28;20038;-65
2022/11/01 02:52:14;;;;;;;10.50;3.95;;;;;;;16.02;91.84;100837.59;4998120;28;20040;-65
2022/11/01 02:54:47;;;;;;;11.57;3.83;;;;;;;16.03;91.46;100844.50;5002425;28;20470;-65
2022/11/01 02:57:16;;;;;;;10.48;3.97;;;;;;;16.03;91.41;100832.41;5002666;28;20037;-65
2022/11/01 02:59:46;;;;;;;8.63;3.58;;;;;;;16.03;91.21;100835.00;4999597;28;20025;-65
2022/11/01 03:02:16;;;;;;;12.35;3.63;;;;;;;16.04;91.50;100841.03;5000732;28;21093;-65
2022/11/01 03:04:42;;;;;;;10.40;3.80;;;;;;;16.03;90.98;100827.22;4999908;28;20113;-65
2022/11/01 03:07:11;;;;;;;11.23;3.55;;;;;;;16.02;90.67;100838.44;4998713;28;20181;-65
2022/11/01 03:09:38;;;;;;;13.07;3.70;;;;;;;16.01;90.77;100839.28;4986904;28;20400;-65
2022/11/01 03:12:07;;;;;;;12.18;3.60;;;;;;;16.01;90.81;100848.78;4999370;28;20050;-65
2022/11/01 03:14:58;;;;;;;8.57;3.38;;;;;;;16.06;90.64;100852.28;5002604;28;20492;-65
2022/11/01 03:17:33;;;;;;;8.23;3.80;;;;;;;16.04;90.88;100860.06;4994330;28;20157;-65
2022/11/01 03:20:01;;;;;;;8.25;3.50;;;;;;;16.02;91.09;100861.78;5004630;28;20029;-65
2022/11/01 03:22:47;;;;;;;6.85;3.60;;;;;;;16.05;91.24;100866.13;5003001;28;20051;-65
2022/11/01 03:25:39;;;;;;;9.00;3.53;;;;;;;15.94;91.48;100858.28;5002542;28;20069;-65
2022/11/01 03:28:14;;;;;;;7.43;3.10;;;;;;;15.99;89.96;100877.31;5001825;28;20480;-65
2022/11/01 03:30:44;;;;;;;8.43;3.20;;;;;;;16.00;88.59;100883.38;5005073;28;20113;-65
2022/11/01 03:33:12;;;;;;;5.38;2.95;;;;;;;15.99;88.45;100882.50;5002268;28;20053;-65
2022/11/01 03:35:39;;;;;;;6.15;2.70;;;;;;;15.98;87.38;100882.50;5001632;28;20506;-65
2022/11/01 03:38:09;;;;;;;6.55;2.60;;;;;;;15.96;86.11;100892.88;5002326;28;20081;-65
2022/11/01 03:40:40;;;;;;;6.78;2.15;;;;;;;15.96;83.23;100900.66;5008171;28;20369;-65
2022/11/01 03:43:10;;;;;;;5.80;2.20;;;;;;;15.93;83.30;100902.34;4994791;28;20037;-65
2022/11/01 03:45:39;;;;;;;6.13;1.75;;;;;;;15.93;82.58;100920.50;4998602;28;20069;-65
2022/11/01 03:48:05;;;;;;;8.45;1.92;;;;;;;15.90;81.35;100902.34;5004181;28;20492;-65
2022/11/01 03:50:30;;;;;;;7.13;1.70;;;;;;;15.89;79.99;100911.81;4996003;28;20067;-64
2022/11/01 03:52:56;;;;;;;4.18;1.50;;;;;;;15.85;79.16;100911.81;5005270;28;20117;-64
2022/11/01 03:55:22;;;;;;;5.78;1.40;;;;;;;15.85;77.90;100922.19;5000396;28;20058;-64
2022/11/01 03:57:49;;;;;;;4.60;1.27;;;;;;;15.85;77.72;100930.84;5001256;28;20044;-64
2022/11/01 04:00:28;;;;;;;4.80;1.50;;;;;;;15.84;78.82;100936.88;4996111;28;20053;-64
2022/11/01 04:02:55;;;;;;;3.88;1.38;;;;;;;15.79;78.02;100946.34;5007464;28;20029;-64
2022/11/01 04:05:22;;;;;;;3.20;1.17;;;;;;;15.78;77.24;100954.97;4993879;28;20492;-64
2022/11/01 04:07:47;;;;;;;2.30;1.30;;;;;;;15.74;76.21;100958.41;4999174;28;20034;-64
2022/11/01 04:10:14;;;;;;;5.95;1.17;;;;;;;15.74;74.25;100971.34;4999015;28;20435;-64
2022/11/01 04:12:42;;;;;;;4.22;1.20;;;;;;;15.72;73.01;100986.03;5008403;28;20109;-64
2022/11/01 04:20:53;;;;;;;3.47;1.00;;;;;;;15.64;73.36;100993.72;4997611;28;20053;-65
2022/11/01 04:23:19;;;;;;;5.65;1.15;;;;;;;15.61;73.10;100995.41;4999437;28;20035;-65
2022/11/01 04:25:45;;;;;;;3.83;0.77;;;;;;;15.58;71.25;101019.56;5000114;28;20030;-64
2022/11/01 04:28:11;;;;;;;4.38;0.80;;;;;;;15.53;70.47;101022.13;4998795;28;20033;-64
2022/11/01 04:30:37;;;;;;;4.50;0.70;;;;;;;15.49;70.53;101017.75;4999518;28;20397;-64
2022/11/01 04:33:02;;;;;;;2.25;0.60;;;;;;;15.48;70.85;101025.50;4999322;28;20073;-64
2022/11/01 04:35:28;;;;;;;4.25;0.80;;;;;;;15.43;70.46;101028.03;5006240;28;20701;-64
2022/11/01 04:37:57;;;;;;;3.60;0.85;;;;;;;15.45;69.82;101044.47;5002567;28;20037;-64
2022/11/01 04:40:24;;;;;;;3.58;0.70;;;;;;;15.40;69.52;101042.69;5001720;28;20021;-64
2022/11/01 04:42:49;;;;;;;0.90;0.50;;;;;;;15.39;70.51;101049.59;4993544;28;20408;-64
2022/11/01 04:45:15;;;;;;;4.60;0.77;;;;;;;15.39;70.00;101051.31;5001045;28;20116;-64
2022/11/01 04:47:49;;;;;;;3.10;0.70;;;;;;;15.37;70.06;101058.22;4998816;28;20061;-64
2022/11/01 04:50:15;;;;;;;3.13;0.60;;;;;;;15.31;71.04;101065.91;5000616;28;20049;-64
2022/11/01 04:52:41;;;;;;;4.15;0.80;;;;;;;15.29;70.45;101069.34;5000762;28;20080;-64
2022/11/01 04:55:06;;;;;;;4.43;0.93;;;;;;;15.26;70.53;101071.88;5004857;28;20030;-65
2022/11/01 04:57:39;;;;;;;3.97;0.70;;;;;;;15.26;70.70;101089.16;5002118;28;20062;-64
2022/11/01 05:00:06;;;;;;;3.30;1.05;;;;;;;15.23;70.55;101095.19;5003795;28;20109;-64
2022/11/01 05:02:31;;;;;;;6.25;0.73;;;;;;;15.20;70.42;101110.69;4983138;28;20489;-64
2022/11/01 05:04:56;;;;;;;2.33;0.60;;;;;;;15.18;70.06;101114.97;5006041;28;20030;-64
2022/11/01 05:07:22;;;;;;;4.18;0.80;;;;;;;15.15;69.87;101114.91;5004312;28;20025;-64
2022/11/01 05:09:47;;;;;;;3.97;0.70;;;;;;;15.15;70.03;101124.41;5003853;28;20052;-64
2022/11/01 05:12:12;;;;;;;5.53;0.70;;;;;;;15.11;70.12;101114.88;5001950;28;20045;-64
2022/11/01 05:14:38;;;;;;;3.00;1.02;;;;;;;15.10;70.20;101126.06;5003167;28;20040;-64
2022/11/01 05:17:03;;;;;;;2.75;0.52;;;;;;;15.05;69.92;101126.03;5002181;28;20041;-64
2022/11/01 05:19:28;;;;;;;5.20;0.70;;;;;;;15.04;69.48;101134.63;5001991;28;20026;-64
2022/11/01 05:21:54;;;;;;;6.47;0.85;;;;;;;14.99;69.51;101126.81;5004200;28;20062;-65
2022/11/01 05:24:19;;;;;;;4.97;0.73;;;;;;;14.97;68.02;101144.03;4984400;28;20377;-65
2022/11/01 05:26:44;;;;;;;5.38;0.88;;;;;;;14.95;67.25;101150.91;4998784;28;20041;-65
2022/11/01 05:29:10;;;;;;;2.85;0.60;;;;;;;14.91;67.20;101143.94;5002346;28;20042;-64
2022/11/01 05:31:36;;;;;;;6.38;0.85;;;;;;;14.87;66.92;101144.75;5005910;28;20037;-65
2022/11/01 05:34:02;;;;;;;4.15;0.63;;;;;;;14.87;66.12;101152.53;5002529;28;20050;-65
2022/11/01 05:36:28;;;;;;;3.80;0.68;;;;;;;14.84;67.14;101151.59;4990505;28;20037;-65
2022/11/01 05:38:57;;;;;;;4.72;0.77;;;;;;;14.81;67.53;101147.25;5001885;28;20021;-65
2022/11/01 05:41:23;;;;;;;6.10;0.80;;;;;;;14.80;66.57;101154.97;4999925;28;20065;-66
2022/11/01 05:43:48;;;;;;;4.95;0.80;;;;;;;14.79;66.92;101159.28;5004264;28;20057;-65
2022/11/01 05:46:14;;;;;;;4.75;0.90;;;;;;;14.73;66.19;101166.94;5002786;28;20044;-65
2022/11/01 05:48:40;;;;;;;4.43;0.90;;;;;;;14.74;66.70;101161.81;5001986;28;20049;-65
2022/11/01 05:51:05;;;;;;;4.00;0.70;;;;;;;14.73;66.90;101169.53;4988929;28;21057;-65
2022/11/01 05:53:31;;;;;;;2.75;0.50;;;;;;;14.69;67.28;101168.63;4983647;28;20084;-65
2022/11/01 05:55:56;;;;;;;5.53;0.80;;;;;;;14.67;67.10;101169.44;5000047;28;20036;-65
2022/11/01 05:58:22;;;;;;;7.15;0.98;;;;;;;14.67;67.84;101180.66;4982483;28;20407;-65
2022/11/01 06:00:47;;;;;;;4.53;0.70;;;;;;;14.62;67.85;101182.31;5003395;28;20030;-65
2022/11/01 06:03:12;;;;;;;4.22;0.63;;;;;;;14.66;67.93;101193.59;5003760;28;20080;-65
2022/11/01 06:05:38;;;;;;;2.03;0.60;;;;;;;14.61;68.58;101185.72;5000527;28;20038;-65
2022/11/01 06:08:04;;;;;;;1.85;0.60;;;;;;;14.62;68.74;101192.69;5003321;28;20284;-66
2022/11/01 06:10:31;;;;;;;8.70;1.00;;;;;;;14.59;69.01;101195.19;4983948;28;20034;-65
2022/11/01 06:12:57;;;;;;;6.15;1.20;;;;;;;14.55;67.80;101195.13;5004114;28;20037;-65
2022/11/01 06:15:22;;;;;;;4.93;0.80;;;;;;;14.56;66.16;101210.69;5002519;28;20037;-65
2022/11/01 06:17:47;;;;;;;6.43;1.00;;;;;;;14.53;65.43;101218.38;4972986;28;20034;-65
2022/11/01 06:20:13;;;;;;;9.43;1.40;;;;;;;14.54;64.73;101214.06;5003294;28;20032;-65
2022/11/01 06:22:38;;;;;;;14.00;1.42;;;;;;;14.48;64.67;101214.84;4984233;28;20603;-65
2022/11/01 06:25:05;;;;;;;8.90;1.52;;;;;;;14.46;64.35;101227.75;5002556;28;20033;-65
2022/11/01 06:27:31;;;;;;;8.10;1.30;;;;;;;14.49;64.56;101226.94;5003475;28;20045;-65
2022/11/01 06:29:56;;;;;;;7.25;1.10;;;;;;;14.45;64.00;101215.63;5002092;28;20099;-65
2022/11/01 06:32:22;;;;;;;5.35;1.00;;;;;;;14.45;64.07;101236.34;5001264;28;20469;-65
2022/11/01 06:34:47;;;;;;;6.82;1.02;;;;;;;14.43;63.98;101244.91;5001088;28;20233;-65
2022/11/01 06:37:12;;;;;;;5.47;1.00;;;;;;;14.42;64.25;101256.09;4997388;28;20116;-64
2022/11/01 06:39:38;;;;;;;8.05;1.30;;;;;;;14.44;64.83;101254.44;4999993;28;20042;-66
2022/11/01 06:42:04;;;;;;;5.85;1.05;;;;;;;14.39;65.27;101253.47;4998278;28;20026;-64
2022/11/01 06:44:29;;;;;;;7.57;1.25;;;;;;;14.35;64.88;101255.13;5003448;28;20041;-65
2022/11/01 06:46:54;;;;;;;6.28;1.00;;;;;;;14.34;65.67;101262.84;5002462;28;20370;-64
2022/11/01 06:49:20;;;;;;;7.15;1.05;;;;;;;14.36;65.98;101267.19;5004543;28;20125;-65
2022/11/01 06:51:46;;;;;;;9.45;1.10;;;;;;;14.28;65.96;101263.59;4998597;28;20080;-64
2022/11/01 06:54:11;;;;;;;7.18;1.13;;;;;;;14.27;66.41;101261.88;5005040;28;20025;-65
2022/11/01 06:56:37;;;;;;;4.43;0.90;;;;;;;14.25;66.93;101258.34;5000092;28;20120;-65
2022/11/01 06:59:03;;;;;;;6.45;1.15;;;;;;;14.27;67.25;101268.75;4999532;28;20037;-65
2022/11/01 07:01:29;;;;;;;6.53;1.20;;;;;;;14.26;67.44;101273.06;5003405;28;20025;-64
2022/11/01 07:03:54;;;;;;;7.18;1.25;;;;;;;14.22;67.22;101274.69;5000178;28;20045;-64
2022/11/01 07:06:20;;;;;;;7.88;1.48;;;;;;;14.20;67.80;101291.91;4998054;28;20027;-63
2022/11/01 07:08:46;;;;;;;7.78;1.38;;;;;;;14.21;67.67;101293.66;5002894;28;20037;-65
2022/11/01 07:11:11;;;;;;;7.63;1.17;;;;;;;14.18;67.54;101285.81;5001670;28;20479;-64
2022/11/01 07:13:37;;;;;;;6.88;1.10;;;;;;;14.15;67.60;101301.28;5001972;28;20096;-64
2022/11/01 07:16:03;;;;;;;8.60;1.10;;;;;;;14.13;67.53;101309.84;5009490;28;20126;-64
2022/11/01 07:18:30;;;;;;;5.88;1.23;;;;;;;14.14;67.42;101314.19;5006123;28;20028;-64
2022/11/01 07:20:56;;;;;;;6.50;1.40;;;;;;;14.17;67.28;101319.41;5002804;28;20579;-64
2022/11/01 07:23:21;;;;;;;7.88;1.58;;;;;;;14.15;68.07;101318.53;5004713;28;20149;-64
2022/11/01 07:25:52;;;;;;;8.70;1.50;;;;;;;14.19;68.48;101326.34;5006503;28;20068;-64
2022/11/01 07:28:18;;;;;;;9.15;1.50;;;;;;;14.15;67.41;101337.50;4999596;28;20041;-64
2022/11/01 07:30:51;;;;;;;7.88;1.88;;;;;;;14.20;67.62;101341.06;4999929;28;20026;-65
2022/11/01 07:33:17;;;;;;;6.00;1.30;;;;;;;14.17;67.21;101335.81;5002464;28;20527;-66
2022/11/01 07:35:43;;;;;;;6.53;1.10;;;;;;;14.17;67.40;101345.28;5006288;28;20025;-66
2022/11/01 07:38:09;;;;;;;7.70;1.48;;;;;;;14.18;67.95;101347.03;5004563;28;20053;-66
2022/11/01 07:40:35;;;;;;;9.02;1.58;;;;;;;14.16;67.83;101352.16;5001194;28;20033;-66
2022/11/01 07:43:02;;;;;;;7.30;1.52;;;;;;;14.16;67.58;101357.34;4985436;28;20034;-66
2022/11/01 07:45:30;;;;;;;8.68;1.40;;;;;;;14.19;67.56;101361.69;4998243;28;20061;-65
2022/11/01 07:48:09;;;;;;;11.48;1.70;;;;;;;14.16;67.89;101357.34;4999393;28;20476;-65
2022/11/01 07:50:35;;;;;;;13.43;1.83;;;;;;;14.16;67.12;101359.94;5004113;28;20030;-65
2022/11/01 07:53:07;;;;;;;8.70;1.38;;;;;;;14.16;67.88;101365.09;5002353;28;20045;-65
2022/11/01 07:55:33;;;;;;;9.77;1.80;;;;;;;14.19;67.86;101372.03;4999954;28;20076;-65
2022/11/01 07:57:59;;;;;;;8.63;1.63;;;;;;;14.15;67.48;101376.28;4999635;28;20057;-66
2022/11/01 08:00:25;;;;;;;11.32;1.50;;;;;;;14.15;66.95;101380.59;4994620;28;20502;-65
2022/11/01 08:02:50;;;;;;;10.38;1.55;;;;;;;14.14;66.74;101373.69;5000682;28;20053;-66
2022/11/01 08:05:16;;;;;;;9.57;1.27;;;;;;;14.16;66.80;101388.38;5000244;28;20480;-65
2022/11/01 08:07:42;;;;;;;12.63;1.85;;;;;;;14.15;66.77;101383.19;4998322;28;20040;-66
2022/11/01 08:10:09;;;;;;;8.25;1.70;;;;;;;14.13;66.66;101390.88;4983610;28;20026;-65
2022/11/01 08:12:35;;;;;;;13.65;2.05;;;;;;;14.16;66.50;101384.91;5003000;28;20030;-65
2022/11/01 08:15:01;;;;;;;12.15;1.73;;;;;;;14.17;66.71;101392.69;4993442;28;20037;-65
2022/11/01 08:17:27;;;;;;;9.15;1.42;;;;;;;14.18;66.89;101388.41;4996266;28;20030;-65
2022/11/01 08:19:53;;;;;;;8.88;1.73;;;;;;;14.19;66.74;101385.84;4997121;28;20449;-65
2022/11/01 08:22:18;;;;;;;10.38;1.63;;;;;;;14.19;66.18;101397.91;4997736;28;20105;-65
2022/11/01 08:24:43;;;;;;;13.38;1.67;;;;;;;14.21;66.13;101393.66;4991902;28;20034;-65
2022/11/01 08:27:09;;;;;;;10.32;1.83;;;;;;;14.27;66.12;101398.97;4998185;28;20065;-65
2022/11/01 08:29:34;;;;;;;10.82;1.98;;;;;;;14.28;66.11;101408.47;5003566;28;20041;-66
2022/11/01 08:32:00;;;;;;;9.88;1.73;;;;;;;14.36;65.86;101408.63;5003689;28;20030;-66
2022/11/01 08:34:25;;;;;;;13.00;2.10;;;;;;;14.42;65.97;101416.50;4985168;28;20516;-66
2022/11/01 08:36:50;;;;;;;11.48;1.85;;;;;;;14.44;65.61;101415.72;5006999;28;20057;-69
2022/11/01 08:39:16;;;;;;;9.35;1.90;;;;;;;14.61;65.51;101415.19;4998307;28;20073;-66
2022/11/01 08:41:41;;;;;;;10.00;2.17;;;;;;;14.67;64.82;101418.78;4990885;28;20050;-66
2022/11/01 08:44:07;;;;;;;14.95;2.10;;;;;;;14.78;64.21;101416.41;5001739;28;20049;-66
2022/11/01 08:46:32;;;;;;;11.43;1.83;;;;;;;14.91;64.27;101409.75;5005393;28;20030;-66
2022/11/01 08:48:59;;;;;;;11.38;2.00;;;;;;;15.01;63.75;101416.88;5001064;28;20152;-66
2022/11/01 08:51:25;;;;;;;10.45;1.80;;;;;;;15.13;63.88;101424.88;5004637;28;20231;-65
2022/11/01 08:53:55;;;;;;;11.90;2.05;;;;;;;15.27;63.79;101415.59;5007096;28;20396;-66
2022/11/01 08:56:23;;;;;;;12.85;1.90;;;;;;;15.39;63.12;101427.91;5004828;28;20040;-66
2022/11/01 08:58:49;;;;;;;7.60;1.85;;;;;;;15.55;62.67;101437.69;5008899;28;20117;-66
2022/11/01 09:01:15;;;;;;;11.90;2.35;;;;;;;15.67;61.92;101428.41;5003778;28;20029;-66
2022/11/01 09:03:40;;;;;;;12.68;2.38;;;;;;;15.84;61.05;101429.56;5009233;28;20060;-65
2022/11/01 09:06:05;;;;;;;10.68;1.80;;;;;;;15.95;60.43;101440.94;4979215;28;20038;-65
2022/11/01 09:08:31;;;;;;;10.25;1.92;;;;;;;16.12;60.45;101441.19;5012499;28;20507;-65
2022/11/01 09:10:57;;;;;;;10.25;2.10;;;;;;;16.22;59.08;101437.91;5008808;28;20077;-66
2022/11/01 09:13:23;;;;;;;9.38;1.73;;;;;;;16.27;59.31;101432.78;5010982;28;20064;-66
2022/11/01 09:15:48;;;;;;;9.85;1.70;;;;;;;16.38;58.60;101433.81;5012418;28;20057;-66
2022/11/01 09:18:13;;;;;;;9.50;2.00;;;;;;;16.56;58.44;101434.03;5013412;28;20018;-65
2022/11/01 09:20:39;;;;;;;15.13;2.10;;;;;;;16.53;57.77;101436.59;5012563;28;20117;-66
2022/11/01 09:23:04;;;;;;;11.38;2.13;;;;;;;16.59;58.40;101439.25;5010928;28;20088;-66
2022/11/01 09:25:30;;;;;;;13.35;1.85;;;;;;;16.72;58.24;101453.28;5009770;28;20447;-65
2022/11/01 09:27:56;;;;;;;8.48;1.80;;;;;;;16.67;57.66;101449.72;5010867;28;20035;-65
2022/11/01 09:30:22;;;;;;;8.57;1.80;;;;;;;16.70;58.11;101446.31;5008197;28;20511;-66
2022/11/01 09:32:48;;;;;;;15.27;2.28;;;;;;;16.66;58.04;101436.72;5008850;28;20046;-66
2022/11/01 09:35:13;;;;;;;8.95;2.10;;;;;;;16.63;58.15;101458.34;4992388;28;20034;-66
2022/11/01 09:37:39;;;;;;;9.23;1.73;;;;;;;16.59;58.07;101457.44;5005292;28;20022;-66
2022/11/01 09:40:05;;;;;;;10.30;2.10;;;;;;;16.62;58.04;101469.56;5007013;28;20029;-66
2022/11/01 09:42:38;;;;;;;14.07;1.95;;;;;;;16.58;59.14;101468.66;5008213;28;20029;-66
2022/11/01 09:45:15;;;;;;;11.13;2.00;;;;;;;16.57;58.80;101473.84;5012276;28;20042;-66
2022/11/01 09:47:44;;;;;;;13.45;2.10;;;;;;;16.53;58.50;101483.31;5012370;28;20053;-66
2022/11/01 09:50:21;;;;;;;10.88;2.25;;;;;;;16.56;59.23;101496.34;5007556;28;20037;-66
2022/11/01 09:52:48;;;;;;;9.23;2.00;;;;;;;16.52;59.30;101509.25;4994224;28;20022;-66
2022/11/01 09:55:16;;;;;;;10.68;1.90;;;;;;;16.49;58.99;101493.63;5009750;28;20057;-66
2022/11/01 09:57:56;;;;;;;10.13;1.90;;;;;;;16.55;60.02;101502.38;5009279;28;20037;-67
2022/11/01 10:00:37;;;;;;;13.20;1.98;;;;;;;16.54;59.96;101505.81;4990834;28;20110;-66
2022/11/01 10:03:28;;;;;;;11.65;1.60;;;;;;;16.53;59.70;101511.88;5009510;28;20105;-66
2022/11/01 10:05:58;;;;;;;10.48;1.92;;;;;;;16.54;59.45;101526.59;5008024;28;20030;-66
2022/11/01 10:08:37;;;;;;;10.77;1.73;;;;;;;16.56;60.13;101530.09;5004756;28;20040;-66
2022/11/01 10:11:35;;;;;;;14.32;1.88;;;;;;;16.58;60.24;101523.19;5003792;28;20034;-67
2022/11/01 10:14:07;;;;;;;;;;;;;;;16.73;60.33;101534.66;5000699;28;20019;-66
2022/11/01 10:16:40;;;;;;;13.23;2.20;;;;;;;16.66;60.08;101541.47;5004612;28;19917;-65
2022/11/01 10:19:17;;;;;;;11.25;2.05;;;;;;;16.71;60.30;101538.97;5006175;28;20025;-66
2022/11/01 10:21:53;;;;;;;12.73;2.17;;;;;;;16.71;59.88;101533.78;5004294;28;20026;-66
2022/11/01 10:24:30;;;;;;;12.90;1.95;;;;;;;16.72;59.92;101532.94;5007741;28;20076;-65
2022/11/01 10:27:06;;;;;;;7.13;1.95;;;;;;;16.74;60.03;101526.88;5006990;28;20029;-65
2022/11/01 10:29:42;;;;;;;12.35;2.15;;;;;;;16.72;59.24;101533.78;5008380;28;20399;-65
2022/11/01 10:32:33;;;;;;;13.40;1.90;;;;;;;16.80;60.26;101534.75;5007640;28;20058;-65
2022/11/01 10:35:05;;;;;;;11.50;1.88;;;;;;;16.72;59.24;101531.19;5011060;28;20026;-66
2022/11/01 10:37:43;;;;;;;12.20;2.13;;;;;;;16.80;60.06;101529.56;5003690;28;20373;-65
2022/11/01 10:40:17;;;;;;;9.32;1.67;;;;;;;16.83;60.36;101532.22;5007138;28;20033;-66
2022/11/01 10:42:43;;;;;;;14.48;2.40;;;;;;;16.86;58.66;101544.34;4987488;28;20431;-65
2022/11/01 10:45:16;;;;;;;10.90;1.70;;;;;;;16.85;59.24;101535.69;5004635;28;20026;-65
2022/11/01 10:47:42;;;;;;;10.73;1.77;;;;;;;16.87;59.04;101536.63;5000113;28;20029;-65
2022/11/01 10:50:10;;;;;;;11.68;1.90;;;;;;;16.91;59.75;101536.63;4999790;28;20152;-66
2022/11/01 10:52:59;;;;;;;10.32;1.77;;;;;;;16.96;60.33;101535.84;5003119;28;20389;-64
2022/11/01 10:55:27;;;;;;;13.23;1.70;;;;;;;17.02;59.95;101535.03;5001906;28;20038;-66
2022/11/01 10:58:12;;;;;;;10.77;2.13;;;;;;;17.04;59.93;101522.94;5002890;28;20109;-66
2022/11/01 11:00:41;;;;;;;11.73;2.08;;;;;;;17.06;58.61;101534.25;5002606;28;20927;-66
2022/11/01 11:03:24;;;;;;;12.18;1.73;;;;;;;17.13;59.26;101536.06;5002337;28;20068;-65
2022/11/01 11:05:51;;;;;;;9.80;2.08;;;;;;;17.11;58.38;101536.03;5001309;28;20030;-65
2022/11/01 11:08:21;;;;;;;10.10;1.63;;;;;;;17.11;58.61;101542.97;5003068;28;20493;-65
2022/11/01 11:10:47;;;;;;;10.73;1.88;;;;;;;17.12;58.47;101542.13;5002323;28;20481;-65
2022/11/01 11:13:18;;;;;;;9.73;2.00;;;;;;;17.19;58.02;101540.44;5004754;28;20034;-65
2022/11/01 11:15:49;;;;;;;10.77;2.13;;;;;;;17.21;57.93;101536.13;5003496;28;20081;-66
2022/11/01 11:18:29;;;;;;;13.93;1.77;;;;;;;17.31;58.39;101530.19;5003311;28;20033;-66
2022/11/01 11:20:59;;;;;;;8.43;1.88;;;;;;;17.34;58.38;101528.47;5007496;28;20031;-66
2022/11/01 11:23:31;;;;;;;14.18;2.40;;;;;;;17.39;57.13;101533.75;5009691;28;20336;-66
2022/11/01 11:26:18;;;;;;;9.13;2.00;;;;;;;17.43;58.63;101514.72;4992957;28;20105;-66
2022/11/01 11:28:50;;;;;;;9.73;1.67;;;;;;;17.51;58.48;101525.19;5011176;28;20111;-66
2022/11/01 11:31:25;;;;;;;14.20;2.03;;;;;;;17.56;58.38;101516.59;5005414;28;20030;-66
2022/11/01 11:33:56;;;;;;;10.73;1.65;;;;;;;17.64;58.50;101525.31;5004448;28;20470;-66